BAW9002 LIRF-LIRF
Flight info
| Callsign | BAW9002 |
|---|---|
| Flight time | 0h 15m |
| Altitude | 19000 |
| Route | GILIO Q195 GIKIN/N0361F180 L865 RITEB |
| Aircraft | A320/M-SDE3FGHIKRWXY/S |
Departure
| Time | 2026-02-20 22:59 |
|---|---|
| Airport | Rome–Fiumicino Leonardo da Vinci International Airport (LIRF) |
Arrival
| Time | 2026-02-20 23:14 |
|---|---|
| Airport | Rome–Fiumicino Leonardo da Vinci International Airport (LIRF) |
| Time | Latitude | Longitude | Altitude | Speed | Heading |
|---|---|---|---|---|---|
| 2026-02-20 22:43 | 41.79729 | 12.24839 | 14 ft | 0 kts | 250° |
| 2026-02-20 22:50 | 41.79732 | 12.24848 | 14 ft | 2 kts | 250° |
| 2026-02-20 22:50 | 41.79738 | 12.24873 | 14 ft | 3 kts | 255° |
| 2026-02-20 22:50 | 41.79742 | 12.24899 | 15 ft | 3 kts | 265° |
| 2026-02-20 22:50 | 41.79742 | 12.24925 | 16 ft | 3 kts | 290° |
| 2026-02-20 22:51 | 41.79734 | 12.24943 | 16 ft | 2 kts | 335° |
| 2026-02-20 22:51 | 41.79731 | 12.24945 | 15 ft | 0 kts | 340° |
| 2026-02-20 22:53 | 41.79742 | 12.24939 | 14 ft | 4 kts | 336° |
| 2026-02-20 22:53 | 41.79761 | 12.24930 | 14 ft | 6 kts | 340° |
| 2026-02-20 22:54 | 41.79832 | 12.24895 | 14 ft | 13 kts | 340° |
| 2026-02-20 22:54 | 41.79931 | 12.24846 | 14 ft | 17 kts | 339° |
| 2026-02-20 22:54 | 41.80051 | 12.24787 | 14 ft | 17 kts | 341° |
| 2026-02-20 22:54 | 41.80161 | 12.24782 | 14 ft | 15 kts | 19° |
| 2026-02-20 22:55 | 41.80207 | 12.24920 | 14 ft | 19 kts | 87° |
| 2026-02-20 22:55 | 41.80220 | 12.25114 | 15 ft | 23 kts | 69° |
| 2026-02-20 22:55 | 41.80276 | 12.25321 | 16 ft | 24 kts | 69° |
| 2026-02-20 22:55 | 41.80335 | 12.25535 | 18 ft | 26 kts | 70° |
| 2026-02-20 22:56 | 41.80402 | 12.25778 | 15 ft | 25 kts | 70° |
| 2026-02-20 22:56 | 41.80464 | 12.26002 | 17 ft | 27 kts | 70° |
| 2026-02-20 22:56 | 41.80523 | 12.26212 | 16 ft | 26 kts | 69° |
| 2026-02-20 22:56 | 41.80590 | 12.26456 | 18 ft | 28 kts | 71° |
| 2026-02-20 22:57 | 41.80653 | 12.26685 | 17 ft | 28 kts | 69° |
| 2026-02-20 22:57 | 41.80715 | 12.26908 | 14 ft | 15 kts | 69° |
| 2026-02-20 22:57 | 41.80752 | 12.27031 | 15 ft | 11 kts | 56° |
| 2026-02-20 22:57 | 41.80833 | 12.27030 | 14 ft | 14 kts | 339° |
| 2026-02-20 22:58 | 41.80921 | 12.26985 | 14 ft | 15 kts | 340° |
| 2026-02-20 22:58 | 41.80945 | 12.26881 | 15 ft | 16 kts | 247° |
| 2026-02-20 22:58 | 41.80845 | 12.26505 | 19 ft | 86 kts | 250° |
| 2026-02-20 22:58 | 41.80547 | 12.25419 | 89 ft | 153 kts | 256° |
| 2026-02-20 22:59 | 41.80166 | 12.24044 | 845 ft | 159 kts | 256° |
| 2026-02-20 22:59 | 41.79774 | 12.22640 | 1622 ft | 170 kts | 253° |
| 2026-02-20 22:59 | 41.79362 | 12.21040 | 2183 ft | 192 kts | 263° |
| 2026-02-20 22:59 | 41.79274 | 12.19143 | 2765 ft | 216 kts | 272° |
| 2026-02-20 23:00 | 41.79230 | 12.17008 | 3538 ft | 241 kts | 271° |
| 2026-02-20 23:00 | 41.79176 | 12.14634 | 4399 ft | 264 kts | 272° |
| 2026-02-20 23:00 | 41.79113 | 12.12136 | 5584 ft | 274 kts | 272° |
| 2026-02-20 23:00 | 41.78922 | 12.09588 | 6005 ft | 279 kts | 258° |
| 2026-02-20 23:01 | 41.77975 | 12.07297 | 6399 ft | 288 kts | 230° |
| 2026-02-20 23:01 | 41.76313 | 12.05758 | 6779 ft | 296 kts | 203° |
| 2026-02-20 23:01 | 41.74330 | 12.05217 | 7145 ft | 301 kts | 186° |
| 2026-02-20 23:01 | 41.72260 | 12.05126 | 7511 ft | 304 kts | 172° |
| 2026-02-20 23:02 | 41.70177 | 12.05698 | 7905 ft | 305 kts | 165° |
| 2026-02-20 23:02 | 41.68125 | 12.06390 | 8080 ft | 307 kts | 164° |
| 2026-02-20 23:02 | 41.66052 | 12.07106 | 8098 ft | 307 kts | 164° |
| 2026-02-20 23:02 | 41.63998 | 12.07817 | 7913 ft | 300 kts | 164° |
| 2026-02-20 23:03 | 41.62013 | 12.08503 | 7784 ft | 290 kts | 164° |
| 2026-02-20 23:03 | 41.60088 | 12.09167 | 7657 ft | 281 kts | 164° |
| 2026-02-20 23:03 | 41.58221 | 12.09807 | 7515 ft | 273 kts | 164° |
| 2026-02-20 23:03 | 41.56503 | 12.10699 | 7268 ft | 265 kts | 142° |
| 2026-02-20 23:04 | 41.55279 | 12.12442 | 6976 ft | 254 kts | 118° |
| 2026-02-20 23:04 | 41.54348 | 12.14462 | 6590 ft | 256 kts | 114° |
| 2026-02-20 23:04 | 41.53449 | 12.16514 | 6250 ft | 255 kts | 114° |
| 2026-02-20 23:04 | 41.52560 | 12.18560 | 5925 ft | 254 kts | 114° |
| 2026-02-20 23:05 | 41.51680 | 12.20600 | 5587 ft | 253 kts | 114° |
| 2026-02-20 23:05 | 41.50893 | 12.22615 | 5434 ft | 239 kts | 101° |
| 2026-02-20 23:05 | 41.50765 | 12.24699 | 5309 ft | 217 kts | 77° |
| 2026-02-20 23:05 | 41.50937 | 12.26667 | 5176 ft | 208 kts | 75° |
| 2026-02-20 23:06 | 41.51127 | 12.28540 | 5048 ft | 199 kts | 74° |
| 2026-02-20 23:06 | 41.51447 | 12.30240 | 4919 ft | 181 kts | 52° |
| 2026-02-20 23:06 | 41.52348 | 12.31266 | 4791 ft | 168 kts | 21° |
| 2026-02-20 23:06 | 41.53437 | 12.31810 | 4682 ft | 166 kts | 14° |
| 2026-02-20 23:07 | 41.54553 | 12.32254 | 4546 ft | 168 kts | 14° |
| 2026-02-20 23:07 | 41.55679 | 12.32663 | 4415 ft | 169 kts | 14° |
| 2026-02-20 23:07 | 41.56817 | 12.33067 | 4283 ft | 169 kts | 14° |
| 2026-02-20 23:07 | 41.57963 | 12.33468 | 4153 ft | 169 kts | 14° |
| 2026-02-20 23:08 | 41.59101 | 12.33859 | 4022 ft | 168 kts | 14° |
| 2026-02-20 23:08 | 41.60212 | 12.34239 | 3892 ft | 167 kts | 14° |
| 2026-02-20 23:08 | 41.61349 | 12.34622 | 3766 ft | 168 kts | 14° |
| 2026-02-20 23:08 | 41.62498 | 12.34995 | 3635 ft | 170 kts | 10° |
| 2026-02-20 23:09 | 41.63668 | 12.34881 | 3585 ft | 170 kts | 346° |
| 2026-02-20 23:09 | 41.64807 | 12.34405 | 3426 ft | 171 kts | 347° |
| 2026-02-20 23:09 | 41.65938 | 12.33935 | 3201 ft | 169 kts | 347° |
| 2026-02-20 23:09 | 41.67064 | 12.33467 | 2974 ft | 172 kts | 346° |
| 2026-02-20 23:10 | 41.68186 | 12.33000 | 2747 ft | 167 kts | 346° |
| 2026-02-20 23:10 | 41.69282 | 12.32543 | 2526 ft | 163 kts | 346° |
| 2026-02-20 23:10 | 41.70351 | 12.32097 | 2307 ft | 159 kts | 348° |
| 2026-02-20 23:10 | 41.71397 | 12.31662 | 2092 ft | 156 kts | 348° |
| 2026-02-20 23:11 | 41.72409 | 12.31240 | 1881 ft | 151 kts | 348° |
| 2026-02-20 23:11 | 41.73394 | 12.30828 | 1675 ft | 144 kts | 348° |
| 2026-02-20 23:11 | 41.74340 | 12.30434 | 1480 ft | 137 kts | 347° |
| 2026-02-20 23:11 | 41.75198 | 12.30074 | 1300 ft | 122 kts | 348° |
| 2026-02-20 23:12 | 41.75983 | 12.29747 | 1127 ft | 114 kts | 348° |
| 2026-02-20 23:12 | 41.76734 | 12.29435 | 973 ft | 114 kts | 345° |
| 2026-02-20 23:12 | 41.77487 | 12.29122 | 818 ft | 113 kts | 346° |
| 2026-02-20 23:12 | 41.78244 | 12.28807 | 668 ft | 115 kts | 345° |
| 2026-02-20 23:13 | 41.79005 | 12.28489 | 535 ft | 113 kts | 345° |
| 2026-02-20 23:13 | 41.79757 | 12.28175 | 369 ft | 113 kts | 345° |
| 2026-02-20 23:13 | 41.80501 | 12.27865 | 209 ft | 114 kts | 344° |
| 2026-02-20 23:13 | 41.81258 | 12.27546 | 66 ft | 113 kts | 345° |
| 2026-02-20 23:14 | 41.81976 | 12.27249 | 13 ft | 92 kts | 342° |
| 2026-02-20 23:14 | 41.82413 | 12.27060 | 10 ft | 40 kts | 336° |
| 2026-02-20 23:14 | 41.82617 | 12.26886 | 11 ft | 28 kts | 313° |
| 2026-02-20 23:14 | 41.82721 | 12.26734 | 11 ft | 14 kts | 311° |
| 2026-02-20 23:15 | 41.82709 | 12.26625 | 11 ft | 14 kts | 194° |
| 2026-02-20 23:15 | 41.82594 | 12.26665 | 11 ft | 20 kts | 162° |
| 2026-02-20 23:15 | 41.82442 | 12.26730 | 11 ft | 26 kts | 162° |
| 2026-02-20 23:15 | 41.82252 | 12.26809 | 11 ft | 26 kts | 163° |
| 2026-02-20 23:16 | 41.82066 | 12.26887 | 11 ft | 30 kts | 163° |
| 2026-02-20 23:16 | 41.81858 | 12.26975 | 12 ft | 32 kts | 162° |
| 2026-02-20 23:16 | 41.81661 | 12.27056 | 12 ft | 27 kts | 162° |
| 2026-02-20 23:16 | 41.81472 | 12.27136 | 12 ft | 27 kts | 163° |
| 2026-02-20 23:17 | 41.81281 | 12.27216 | 12 ft | 31 kts | 162° |
| 2026-02-20 23:17 | 41.81099 | 12.27292 | 13 ft | 27 kts | 162° |
| 2026-02-20 23:17 | 41.80929 | 12.27351 | 13 ft | 18 kts | 180° |
| 2026-02-20 23:17 | 41.80781 | 12.27323 | 13 ft | 24 kts | 189° |
| 2026-02-20 23:18 | 41.80661 | 12.27239 | 13 ft | 22 kts | 241° |
| 2026-02-20 23:18 | 41.80599 | 12.27022 | 15 ft | 27 kts | 250° |
| 2026-02-20 23:18 | 41.80539 | 12.26802 | 16 ft | 22 kts | 250° |
| 2026-02-20 23:18 | 41.80499 | 12.26657 | 17 ft | 17 kts | 250° |
| 2026-02-20 23:19 | 41.80472 | 12.26559 | 18 ft | 7 kts | 249° |
| 2026-02-20 23:19 | 41.80456 | 12.26500 | 16 ft | 9 kts | 250° |
| 2026-02-20 23:19 | 41.80428 | 12.26400 | 16 ft | 14 kts | 249° |
| 2026-02-20 23:19 | 41.80387 | 12.26245 | 17 ft | 21 kts | 250° |
| 2026-02-20 23:20 | 41.80330 | 12.26039 | 14 ft | 27 kts | 250° |
| 2026-02-20 23:20 | 41.80263 | 12.25797 | 14 ft | 28 kts | 250° |
| 2026-02-20 23:20 | 41.80192 | 12.25540 | 14 ft | 29 kts | 249° |
| 2026-02-20 23:20 | 41.80129 | 12.25317 | 14 ft | 25 kts | 250° |
| 2026-02-20 23:21 | 41.80097 | 12.25110 | 14 ft | 19 kts | 276° |
| 2026-02-20 23:21 | 41.80110 | 12.24916 | 14 ft | 22 kts | 263° |
| 2026-02-20 23:21 | 41.80082 | 12.24809 | 14 ft | 8 kts | 223° |
| 2026-02-20 23:21 | 41.80025 | 12.24800 | 17 ft | 10 kts | 163° |
| 2026-02-20 23:22 | 41.79953 | 12.24834 | 16 ft | 12 kts | 160° |
| 2026-02-20 23:22 | 41.79866 | 12.24878 | 16 ft | 12 kts | 159° |
| 2026-02-20 23:22 | 41.79803 | 12.24908 | 14 ft | 9 kts | 160° |
| 2026-02-20 23:22 | 41.79752 | 12.24912 | 14 ft | 7 kts | 223° |
| 2026-02-20 23:23 | 41.79737 | 12.24867 | 14 ft | 4 kts | 249° |
| 2026-02-20 23:23 | 41.79730 | 12.24842 | 15 ft | 0 kts | 250° |